• Join FlightAware (Why Join?)
  • Login
  • US Flag 
12:44PM EST


 

Airport Tracker/Info


-or-


 

Live Flight TrackerFlight Track Log ✈ DAL3698 ✈ 27-Apr-2013 ✈ KLAN - KMSP

Flight Track Log - Related Links

Times and Time Zones

All times are in EDT time to prevent confusion due to time zone crossing. See the DAL3698 flight status page for this flight to view local times or setup timezone preferences in your user account.

Time Position Orientation Groundspeed Altitude Reporting Facility
EDT Latitude Longitude Course Direction KTS MPH feet Rate Location/Type
07:22AM 42.7808 -84.6214 270° West 148 170 2,100  Level Chicago Center
07:23AM 42.7808 -84.6908 270° West 176 203 3,700 1,800 Climbing Chicago Center
07:24AM 42.7806 -84.7783 270° West 223 257 5,800 2,340 Climbing Chicago Center
07:25AM 42.7667 -84.9876 270° West  Level FlightAware Approximate
07:25AM 42.7811 -84.8767 270° West 254 292 8,500  Level Chicago Center
07:26AM 42.7833 -85.1202 270° West  Level FlightAware Approximate
07:26AM 42.7831 -84.9794 272° West 268 308 10,600  Level Chicago Center
07:27AM 42.7834 -85.2550 270° West  Level FlightAware Approximate
07:27AM 42.7842 -85.0983 271° West 310 357 12,000  Level Chicago Center
07:28AM 42.7834 -85.3943 270° West  Level FlightAware Approximate
07:28AM 42.7847 -85.2261 270° West 335 386 13,600  Level Chicago Center
07:29AM 42.7858 -85.3597 271° West 350 403 15,300 1,620 Climbing Chicago Center
07:30AM 42.7883 -85.4956 271° West 359 413 17,000 1,380 Climbing Chicago Center
07:31AM 42.8039 -85.6267 279° West 353 406 18,200 1,080 Climbing Chicago Center
07:32AM 42.8364 -85.7575 289° West 366 421 19,300 1,020 Climbing Chicago Center
07:33AM 42.8781 -85.8872 294° West 371 427 20,300 960 Climbing Chicago Center
07:34AM 42.9200 -86.0217 293° West 378 435 21,300 960 Climbing Chicago Center
07:35AM 42.9639 -86.1586 294° West 383 441 22,300 960 Climbing Chicago Center
07:36AM 43.0061 -86.2947 293° West 385 443 23,300 960 Climbing Chicago Center
07:37AM 43.0489 -86.4275 294° West 381 438 24,300 780 Climbing Chicago Center
07:38AM 43.0908 -86.5636 293° West 387 445 24,900 540 Climbing Chicago Center
07:39AM 43.1333 -86.7028 293° West 396 456 25,400 480 Climbing Chicago Center
07:40AM 43.1778 -86.8453 293° West 405 466 25,900 240 Climbing Chicago Center
07:41AM 43.2222 -86.9900 293° West 412 474 26,000  Climbing Chicago Center
07:43AM 43.2761 -87.1683 293° West 423 487 26,000  Level Chicago Center
07:44AM 43.3219 -87.3186 293° West 429 494 26,000  Level Chicago Center
07:45AM 43.3647 -87.4639 292° West 428 493 26,000  Level Chicago Center
07:46AM 43.4106 -87.6169 292° West 431 496 26,000  Level Chicago Center
07:47AM 43.4564 -87.7708 292° West 433 498 26,000  Level Chicago Center
07:48AM 43.5025 -87.9244 293° West 431 496 26,000  Level Chicago Center
07:49AM 43.5475 -88.0772 292° West 430 495 26,000  Level Chicago Center
07:50AM 43.5992 -88.2553 292° West 430 495 26,000  Level Chicago Center
07:51AM 43.6350 -88.3811 292° West 431 496 26,000  Level Minneapolis Center
07:52AM 43.6783 -88.5328 292° West 430 495 26,000  Level Minneapolis Center
07:53AM 43.7222 -88.6850 292° West 432 497 26,000  Level Minneapolis Center
07:54AM 43.7581 -88.8125 291° West 429 494 26,000  Level Minneapolis Center
07:55AM 43.8156 -89.0169 291° West 427 491 26,000  Level Minneapolis Center
07:56AM 43.8572 -89.1703 291° West 427 491 26,000  Level Minneapolis Center
07:57AM 43.8994 -89.3228 291° West 425 489 26,000  Level Minneapolis Center
07:58AM 43.9422 -89.4764 291° West 426 490 26,000  Level Minneapolis Center
07:59AM 43.9847 -89.6283 291° West 425 489 26,000  Level Minneapolis Center
08:00AM 44.0403 -89.7719 298° West 424 488 26,000  Level Minneapolis Center
08:01AM 44.0992 -89.9142 300° West 424 488 26,000  Level Minneapolis Center
08:02AM 44.1581 -90.0569 300° West 424 488 26,000  Level Minneapolis Center
08:03AM 44.2172 -90.1983 300° West 423 487 26,000 -120 Level Minneapolis Center
08:04AM 44.2761 -90.3419 300° West 425 489 25,800 -660 Descending Minneapolis Center
08:05AM 44.3350 -90.4864 300° West 428 493 24,700 -900 Descending Minneapolis Center
08:06AM 44.3933 -90.6261 300° West 418 481 24,000 -360 Descending Minneapolis Center
08:07AM 44.4411 -90.7411 300° West 411 473 24,000  Level Minneapolis Center
08:08AM 44.5100 -90.9136 299° West 413 475 24,000  Level Minneapolis Center
08:09AM 44.5617 -91.0439 299° West 413 475 24,000  Level Minneapolis Center
08:10AM 44.6183 -91.1842 300° West 414 476 24,000  Level Minneapolis Center
08:11AM 44.6739 -91.3236 299° West 412 474 24,000 -300 Level Minneapolis Center
08:12AM 44.7408 -91.4944 299° West 416 479 23,500 -1,380 Descending Minneapolis Center
08:13AM 44.7978 -91.6375 299° West 419 482 21,300 -2,220 Descending Minneapolis Center
08:14AM 44.8528 -91.7778 299° West 415 478 19,000 -2,160 Descending Minneapolis Center
08:15AM 44.9058 -91.9106 299° West 395 455 17,000 -2,100 Descending Minneapolis Center
08:16AM 44.9542 -92.0381 298° West 373 429 14,800 -2,220 Descending Minneapolis Center
08:17AM 45.0025 -92.1642 298° West 368 423 12,600 -1,860 Descending Minneapolis Center
08:18AM 45.0467 -92.2964 295° West 373 429 11,100 -840 Descending Minneapolis Center
08:19AM 45.0264 -92.4336 258° West 356 410 11,000 -60 Descending Minneapolis Center
08:20AM 45.0064 -92.5656 258° West 347 399 11,000  Level Minneapolis Center
08:21AM 44.9842 -92.7006 257° West 355 409 11,000  Level Minneapolis Center
08:22AM 44.9617 -92.8369 257° West 358 412 11,000 -600 Level Minneapolis Center
08:23AM 44.9378 -92.9869 257° West 319 367 9,900 -1,380 Descending Minneapolis Center
08:24AM 44.9381 -93.0900 270° West 278 320 8,200 -1,560 Descending Minneapolis Center
08:25AM 44.9722 -93.1789 299° West 260 299 6,800 -1,140 Descending Minneapolis Center
08:26AM 45.0147 -93.2503 310° West 231 266 6,000 -420 Descending Minneapolis Center
08:27AM 45.0517 -93.3181 308° West 223 257 6,000 -420 Level Minneapolis Center
08:28AM 45.0569 -93.3958 276° West 234 269 5,200 -1,080 Descending Minneapolis Center
08:29AM 44.9975 -93.3908 177° South 236 272 3,900 -1,080 Descending Minneapolis Center
08:30AM 44.9539 -93.3517 148° Southeast 182 209 3,100 -840 Descending Minneapolis Center